Hill City, KS

3:19 AM CDT on April 21, 2015 (GMT -0500)
Hill City Municipal | | Change Station
CLOSE
Current Station
Airport
Location: Hill City,
Elevation: 2224 ft
Nearby Weather Stations

Elev 2224 ft 39.37 °N, 99.83 °W | Updated 26 minutes ago

Scattered Clouds
Scattered Clouds
39 °F
Feels Like 35 °F
N
6
Wind Variable Wind from West

Today
High -- | Low -- °F
--% Chance of Precip.
Yesterday
High -- | Low -- °F
Precip. -- in
6:54 AM 8:22 PM
Waxing Crescent, 9% visible
Pressure 29.89 in
Visibility 10.0 miles
Clouds Scattered Clouds 10000 ft
Windchill 35 °F
Dew Point 32 °F
Humidity 76%
Rainfall 0.00 in
Snow Depth Not available.
UV 0 out of 12
Pollen 9.60 out of 12
Air Quality Not available.
Flu Activity Sporadic
METAR KHLC 210753Z AUTO 28005KT 10SM SCT100 04/00 A2989 RMK AO2 SLP122 T00390000

More Conditions Fewer Conditions

Pressure 29.89 in
Visibility 10.0 miles
Clouds Scattered Clouds 10000 ft
Windchill 35 °F
Dew Point 32 °F
Humidity 76%
Rainfall 0.00 in
Snow Depth Not available.
UV 0 out of 12
Pollen 9.60 out of 12
Air Quality Not available.
Flu Activity Sporadic
METAR KHLC 210753Z AUTO 28005KT 10SM SCT100 04/00 A2989 RMK AO2 SLP122 T00390000

More Conditions Fewer Conditions

10-Day Weather Forecast

Almanac

Astronomy

Apr. 21, 2015 Rise Set
Actual Time
Civil Twilight
Nautical Twilight
Astronomical Twilight
Moon
Length of Visible Light
Length of Day
Tomorrow will be .
, % of the Moon is Illuminated

Today's Extremes

State Highs State Lows

Community

WunderPhotos

Upload Photos

1,815,329 photos uploaded!

WunderBlogs® & News

Nearby

Air Quality

  Air Quality AQ Index Pollutant
Not available.

Snow Depth

Station Depth Elevation

Earthquake Activity

City Distance Mag. Time & Date
Minimum magnitude displayed is 2.5.

Coastal Water Temperatures

Place Temperature

Stations

Nearby Weather Stations

Station Location Temp. Windchill Dew Point Humidity Wind Precip. Elev Updated Type